Terminal Aerodrome Forecast
Issued by NWS Charleston, WV

Current Version | Previous Version | Graphics & Text | Print | Product List | Glossary On
Versions: 1 2 3 4 5 6 7 8 9 10 11 12 13 14 15 16 17 18 19 20 21 22 23 24 25 26
500
FTUS41 KRLX 181720
TAFCRW
TAF
KCRW 181720Z 1818/1918 23007KT P6SM BKN140
     FM190000 00000KT P6SM OVC090
     FM190600 00000KT P6SM OVC015
     FM191400 VRB03KT P6SM OVC020
     FM191600 29004KT P6SM BKN035=

USA.gov is the U.S. government's official web portal to all federal, state and local government web resources and services.